Terminal Aerodrome Forecast
Issued by NWS Sioux Falls, SD

Home | Current Version | Previous Version | Graphics & Text | Print | Product List | Glossary On
Versions: 1 2 3 4 5 6 7 8 9 10 11 12 13 14 15 16 17
542
FTUS43 KFSD 091724
TAFHON
TAF
KHON 091724Z 0918/1018 05005KT P6SM OVC060
     FM092100 04005KT 6SM -SN BR BKN035
     FM100300 VRB03KT P6SM BKN040
     FM101300 10009KT 3SM -SN OVC030
     FM101500 10010KT 1 1/2SM -SN OVC015=

USA.gov is the U.S. government's official web portal to all federal, state and local government web resources and services.